createdAt,value
2022-08-27T18:30:03.328Z,87.29
2022-08-27T18:32:33.257Z,87.05
2022-08-27T18:35:10.563Z,86.71
2022-08-27T18:37:40.347Z,86.53
2022-08-27T18:40:11.836Z,87.44
2022-08-27T18:42:42.710Z,88.36
2022-08-27T18:45:23.081Z,87.71
2022-08-27T18:47:54.495Z,88.51
2022-08-27T18:50:25.278Z,88.82
2022-08-27T18:52:57.563Z,87.77
2022-08-27T18:55:28.713Z,88.76
2022-08-27T18:57:58.616Z,88.14
2022-08-27T19:00:28.471Z,87.89
2022-08-27T19:02:58.281Z,88.37
2022-08-27T19:05:29.989Z,89.10
2022-08-27T19:08:01.063Z,88.81
2022-08-27T19:10:30.783Z,88.75
2022-08-27T19:13:00.469Z,89.80
2022-08-27T19:15:30.243Z,88.68
2022-08-27T19:18:03.055Z,89.76
2022-08-27T19:20:33.834Z,88.92
2022-08-27T19:23:03.696Z,90.05
2022-08-27T19:25:33.522Z,88.69
2022-08-27T19:28:03.718Z,89.88
2022-08-27T19:30:33.461Z,88.93
2022-08-27T19:33:03.259Z,88.58
2022-08-27T19:35:34.395Z,88.80
2022-08-27T19:38:04.684Z,88.87
2022-08-27T19:40:38.438Z,89.43
2022-08-27T19:43:08.535Z,88.38
2022-08-27T19:45:40.451Z,89.04
2022-08-27T19:48:12.642Z,88.70
2022-08-27T19:50:43.237Z,88.63
2022-08-27T19:53:13.404Z,88.58
2022-08-27T19:55:46.210Z,89.16
2022-08-27T19:58:17.319Z,88.91
2022-08-27T20:00:47.964Z,89.42
2022-08-27T20:03:17.903Z,89.48
2022-08-27T20:05:50.683Z,89.61
2022-08-27T20:08:21.021Z,90.40
2022-08-27T20:10:51.422Z,90.16
2022-08-27T20:13:21.535Z,90.41
2022-08-27T20:15:52.835Z,90.80
2022-08-27T20:18:24.036Z,90.50
2022-08-27T20:20:53.805Z,90.97
2022-08-27T20:23:25.052Z,91.16
2022-08-27T20:25:59.155Z,91.18
2022-08-27T20:28:39.782Z,90.59
2022-08-27T20:31:10.681Z,90.85
2022-08-27T20:33:40.786Z,92.34
2022-08-27T20:36:11.379Z,92.67
2022-08-27T20:38:41.417Z,92.92
2022-08-27T20:41:11.244Z,92.28
2022-08-27T20:43:40.926Z,91.93
2022-08-27T20:46:11.307Z,91.85
2022-08-27T20:48:41.055Z,92.32
2022-08-27T20:51:11.452Z,91.18
2022-08-27T20:53:41.217Z,91.90
2022-08-27T20:56:11.257Z,91.94
2022-08-27T20:58:53.398Z,92.74
2022-08-27T21:01:23.743Z,92.72
2022-08-27T21:03:54.439Z,93.19
2022-08-27T21:06:26.527Z,93.09
2022-08-27T21:08:56.821Z,92.88
2022-08-27T21:11:26.911Z,93.24
2022-08-27T21:13:56.900Z,92.85
2022-08-27T21:16:28.296Z,93.65
2022-08-27T21:18:58.294Z,92.83
2022-08-27T21:21:27.985Z,93.39
2022-08-27T21:23:58.245Z,92.81
2022-08-27T21:26:27.982Z,92.61
2022-08-27T21:28:57.695Z,92.41
2022-08-27T21:31:28.159Z,92.40
2022-08-27T21:33:58.215Z,91.73
2022-08-27T21:36:27.864Z,92.18
2022-08-27T21:38:57.654Z,91.97
2022-08-27T21:41:27.417Z,92.68
2022-08-27T21:43:57.818Z,93.13
2022-08-27T21:46:27.513Z,92.31
2022-08-27T21:48:59.122Z,92.47
2022-08-27T21:51:29.086Z,92.64
2022-08-27T21:54:00.413Z,93.56
2022-08-27T21:56:30.763Z,93.14
2022-08-27T21:59:00.525Z,92.80
2022-08-27T22:01:30.306Z,92.42
2022-08-27T22:03:59.964Z,92.19
2022-08-27T22:06:29.718Z,92.68
2022-08-27T22:08:59.441Z,92.21
2022-08-27T22:11:30.632Z,92.94
2022-08-27T22:14:01.159Z,93.20
2022-08-27T22:16:31.030Z,93.80
2022-08-27T22:19:00.769Z,92.90
2022-08-27T22:21:30.459Z,93.01
2022-08-27T22:24:00.199Z,93.39
2022-08-27T22:26:30.257Z,93.89
2022-08-27T22:28:59.939Z,94.03
2022-08-27T22:31:31.289Z,93.99
2022-08-27T22:34:02.850Z,94.71
2022-08-27T22:36:32.635Z,94.89
2022-08-27T22:39:03.705Z,94.33
2022-08-27T22:41:34.084Z,95.39
2022-08-27T22:44:04.575Z,94.79
2022-08-27T22:46:35.663Z,95.39
2022-08-27T22:49:05.503Z,94.62
2022-08-27T22:51:35.210Z,94.33
2022-08-27T22:54:04.940Z,94.00
2022-08-27T22:56:34.677Z,94.64
2022-08-27T22:59:07.346Z,93.93
2022-08-27T23:01:38.780Z,94.25
2022-08-27T23:04:09.255Z,94.61
2022-08-27T23:06:39.238Z,94.91
2022-08-27T23:09:09.138Z,95.15
2022-08-27T23:11:39.056Z,94.86
2022-08-27T23:14:08.750Z,95.13
2022-08-27T23:16:38.602Z,94.76
2022-08-27T23:19:08.258Z,96.44
2022-08-27T23:21:38.565Z,95.15
2022-08-27T23:24:08.328Z,94.96
2022-08-27T23:26:50.629Z,94.85
2022-08-27T23:29:22.690Z,94.88
2022-08-27T23:31:53.965Z,94.19
2022-08-27T23:34:23.920Z,96.26
2022-08-27T23:36:53.641Z,96.08
2022-08-27T23:39:23.377Z,95.07
2022-08-27T23:41:53.142Z,96.14
2022-08-27T23:44:22.865Z,95.45
2022-08-27T23:46:52.565Z,95.41
2022-08-27T23:49:22.274Z,96.18
2022-08-27T23:51:51.971Z,95.76
2022-08-27T23:54:21.855Z,96.02
2022-08-27T23:56:51.538Z,97.02
2022-08-27T23:59:21.255Z,96.39
